createdAt,value
2018-07-28T00:00:33.420Z,36.01
2018-07-28T00:03:01.575Z,36.85
2018-07-28T00:05:29.808Z,36.68
2018-07-28T00:07:58.271Z,37.50
2018-07-28T00:10:26.441Z,36.05
2018-07-28T00:12:54.793Z,36.95
2018-07-28T00:15:22.916Z,36.76
2018-07-28T00:19:40.281Z,38.08
2018-07-28T00:22:08.408Z,38.01
2018-07-28T00:24:37.406Z,37.99
2018-07-28T00:27:05.631Z,37.60
2018-07-28T00:29:34.070Z,37.01
2018-07-28T00:32:03.428Z,37.94
2018-07-28T00:34:31.756Z,37.04
2018-07-28T00:36:59.829Z,37.29
2018-07-28T00:39:28.565Z,37.40
2018-07-28T00:41:56.717Z,38.14
2018-07-28T00:44:24.832Z,37.85
2018-07-28T00:46:54.946Z,38.03
2018-07-28T00:49:23.443Z,40.21
2018-07-28T00:51:52.538Z,40.24
2018-07-28T00:54:20.641Z,39.02
2018-07-28T00:56:48.725Z,38.48
2018-07-28T00:59:16.837Z,38.98
2018-07-28T01:01:44.966Z,38.51
2018-07-28T01:04:15.761Z,39.73
2018-07-28T01:06:43.850Z,40.38
2018-07-28T01:09:11.954Z,39.06
2018-07-28T01:11:40.096Z,41.62
2018-07-28T01:14:08.305Z,40.64
2018-07-28T01:16:36.575Z,39.42
2018-07-28T01:19:04.811Z,40.25
2018-07-28T01:21:32.915Z,41.04
2018-07-28T01:24:02.577Z,40.06
2018-07-28T01:26:30.723Z,40.34
2018-07-28T01:29:04.249Z,41.24
2018-07-28T01:31:32.507Z,41.05
2018-07-28T01:34:01.473Z,41.43
2018-07-28T01:36:31.166Z,42.10
2018-07-28T01:38:59.362Z,41.10
2018-07-28T01:41:28.146Z,40.88
2018-07-28T01:43:56.293Z,41.54
2018-07-28T01:46:24.334Z,41.65
2018-07-28T01:48:52.386Z,43.18
2018-07-28T02:08:38.552Z,42.14
2018-07-28T02:28:24.997Z,42.74
2018-07-28T02:30:53.642Z,42.50
2018-07-28T02:33:21.969Z,42.38
2018-07-28T02:35:50.096Z,43.28
2018-07-28T02:55:34.979Z,43.80
2018-07-28T02:58:03.626Z,43.76
2018-07-28T03:00:31.707Z,44.72
2018-07-28T03:02:59.789Z,44.09
2018-07-28T03:22:45.203Z,44.23
2018-07-28T03:25:14.551Z,44.78
2018-07-28T03:45:00.945Z,47.09
2018-07-28T03:47:29.028Z,45.83
2018-07-28T03:49:57.202Z,45.82
2018-07-28T03:52:25.637Z,46.61
2018-07-28T03:54:54.330Z,46.85
2018-07-28T03:57:22.432Z,46.33
2018-07-28T03:59:50.834Z,45.62
2018-07-28T04:02:19.054Z,46.40
2018-07-28T04:22:07.775Z,46.58
2018-07-28T04:24:36.146Z,46.76
2018-07-28T04:27:04.882Z,46.14
2018-07-28T04:29:35.262Z,46.81
2018-07-28T04:32:03.290Z,47.23
2018-07-28T04:34:31.394Z,47.88
2018-07-28T04:36:59.529Z,46.94
2018-07-28T04:39:27.562Z,46.56
2018-07-28T04:41:55.698Z,47.73
2018-07-28T04:44:23.823Z,48.74
2018-07-28T04:46:52.100Z,48.62
2018-07-28T04:49:20.185Z,48.48
2018-07-28T04:51:48.370Z,49.20
2018-07-28T04:54:16.479Z,48.87
2018-07-28T04:56:44.550Z,48.99
2018-07-28T04:59:12.681Z,49.27
2018-07-28T05:01:40.815Z,47.95
2018-07-28T05:04:08.897Z,48.31
2018-07-28T05:06:36.993Z,48.45
2018-07-28T05:09:07.781Z,47.92
2018-07-28T05:11:37.172Z,47.32
2018-07-28T05:14:06.586Z,49.21
2018-07-28T05:16:34.663Z,48.32
2018-07-28T05:19:02.766Z,48.06
2018-07-28T05:21:32.035Z,46.55
2018-07-28T05:24:00.432Z,47.29
2018-07-28T05:26:30.253Z,47.06
2018-07-28T05:29:01.459Z,46.89
2018-07-28T05:31:30.545Z,46.98
2018-07-28T05:33:59.610Z,45.97
2018-07-28T05:36:27.933Z,47.42
2018-07-28T05:38:56.106Z,46.26
2018-07-28T05:41:24.219Z,45.72
2018-07-28T05:43:52.390Z,45.46
2018-07-28T05:46:20.505Z,45.31
2018-07-28T05:48:51.318Z,45.72
2018-07-28T05:51:19.381Z,44.73
2018-07-28T05:53:47.546Z,45.15
2018-07-28T05:56:15.691Z,44.72
2018-07-28T05:58:43.830Z,43.96
2018-07-28T06:01:11.926Z,44.08
2018-07-28T06:03:40.057Z,43.36
2018-07-28T06:06:08.205Z,43.71
2018-07-28T06:08:36.421Z,43.49
2018-07-28T06:11:05.137Z,43.44
2018-07-28T06:13:33.268Z,43.08
2018-07-28T06:16:01.463Z,42.61
2018-07-28T06:18:29.649Z,43.91
2018-07-28T06:20:57.810Z,43.95
2018-07-28T06:23:26.757Z,42.82
2018-07-28T06:25:56.068Z,42.45
2018-07-28T06:45:40.858Z,41.82
2018-07-28T06:48:10.146Z,42.90
2018-07-28T07:07:55.673Z,48.80
2018-07-28T07:10:37.519Z,49.47
2018-07-28T07:13:05.622Z,48.78
2018-07-28T07:15:34.638Z,48.53
2018-07-28T07:35:18.821Z,48.37
2018-07-28T07:37:47.133Z,48.43
2018-07-28T07:40:15.269Z,47.97
2018-07-28T07:42:43.503Z,46.76
2018-07-28T07:45:11.601Z,45.75
2018-07-28T07:47:39.769Z,46.04
2018-07-28T07:50:07.971Z,45.06
2018-07-28T08:09:52.664Z,42.26
2018-07-28T08:12:20.742Z,42.28
2018-07-28T08:14:48.842Z,41.86
2018-07-28T08:17:16.978Z,41.94
2018-07-28T08:19:45.042Z,42.30
2018-07-28T08:22:13.146Z,42.19
2018-07-28T08:24:41.940Z,42.75
2018-07-28T08:44:27.377Z,40.72
2018-07-28T08:46:55.732Z,41.31
2018-07-28T08:49:23.878Z,41.10
2018-07-28T08:51:51.927Z,39.95
2018-07-28T08:54:20.308Z,40.56
2018-07-28T08:56:48.395Z,39.85
2018-07-28T09:16:33.529Z,41.42
2018-07-28T09:19:01.651Z,41.65
2018-07-28T09:21:30.598Z,41.48
2018-07-28T09:23:59.560Z,42.00
2018-07-28T09:26:28.545Z,43.92
2018-07-28T09:46:12.753Z,42.89
2018-07-28T09:48:40.821Z,41.89
2018-07-28T09:51:09.014Z,42.26
2018-07-28T09:53:37.164Z,41.50
2018-07-28T09:56:05.563Z,42.49
2018-07-28T09:58:34.286Z,41.22
2018-07-28T10:18:21.672Z,38.37
2018-07-28T10:20:49.969Z,38.18
2018-07-28T10:40:35.443Z,37.12
2018-07-28T11:00:19.471Z,36.01
2018-07-28T11:20:06.990Z,34.61
2018-07-28T11:22:35.334Z,35.35
2018-07-28T11:42:31.026Z,33.77
2018-07-28T11:45:07.954Z,31.39
2018-07-28T11:47:36.467Z,31.03
2018-07-28T11:50:04.610Z,29.94
2018-07-28T11:52:32.851Z,28.17
2018-07-28T11:55:01.348Z,27.83
2018-07-28T11:57:29.458Z,28.97
2018-07-28T11:59:58.078Z,26.65
2018-07-28T12:02:26.198Z,27.40
2018-07-28T12:04:54.437Z,26.19
2018-07-28T12:07:22.530Z,25.03
2018-07-28T12:09:50.698Z,24.58
2018-07-28T12:49:45.658Z,22.60
2018-07-28T12:52:13.772Z,20.76
2018-07-28T12:54:43.214Z,19.49
2018-07-28T12:57:13.696Z,21.61
2018-07-28T12:59:42.359Z,20.34
2018-07-28T13:02:10.641Z,22.69
2018-07-28T13:04:38.754Z,23.24
2018-07-28T13:07:07.416Z,21.41
2018-07-28T13:09:35.846Z,20.43
2018-07-28T13:12:04.886Z,20.03
2018-07-28T13:14:33.285Z,21.67
2018-07-28T13:17:02.049Z,22.37
2018-07-28T13:19:30.275Z,21.60
2018-07-28T13:21:58.684Z,22.25
2018-07-28T13:24:27.202Z,23.87
2018-07-28T13:26:55.545Z,22.32
2018-07-28T13:29:23.832Z,24.49
2018-07-28T13:31:51.961Z,25.08
2018-07-28T13:51:37.226Z,20.67
2018-07-28T13:54:05.705Z,21.83
2018-07-28T13:56:34.074Z,21.92
2018-07-28T13:59:02.856Z,22.27
2018-07-28T14:01:33.578Z,23.14
2018-07-28T14:04:01.955Z,21.60
2018-07-28T14:06:30.721Z,23.77
2018-07-28T14:08:59.080Z,25.80
2018-07-28T14:28:44.156Z,33.48
2018-07-28T14:31:12.326Z,34.96
2018-07-28T14:33:40.759Z,36.11
2018-07-28T14:36:09.054Z,46.43
2018-07-28T14:38:37.198Z,42.62
2018-07-28T14:58:23.150Z,40.01
2018-07-28T15:00:51.338Z,53.50
2018-07-28T15:03:19.435Z,57.69
2018-07-28T15:23:05.297Z,43.43
2018-07-28T15:25:33.794Z,44.07
2018-07-28T15:28:02.110Z,47.26
2018-07-28T15:47:47.308Z,41.69
2018-07-28T15:50:15.391Z,35.29
2018-07-28T15:52:43.545Z,31.14
2018-07-28T15:55:11.686Z,33.29
2018-07-28T15:57:39.863Z,33.01
2018-07-28T16:00:08.076Z,28.92
2018-07-28T16:02:36.823Z,30.75
2018-07-28T16:05:05.837Z,32.22
2018-07-28T16:07:34.376Z,32.22
2018-07-28T16:27:18.357Z,34.75
2018-07-28T16:29:46.457Z,34.58
2018-07-28T16:32:14.680Z,34.41
2018-07-28T16:34:42.846Z,33.89
2018-07-28T16:37:11.953Z,33.44
2018-07-28T16:39:40.752Z,32.49
2018-07-28T16:59:30.193Z,28.89
2018-07-28T17:01:59.004Z,29.96
2018-07-28T17:04:27.438Z,29.74
2018-07-28T17:06:57.345Z,30.08
2018-07-28T17:09:25.560Z,30.70
2018-07-28T17:11:54.079Z,30.24
2018-07-28T17:14:22.225Z,30.68
2018-07-28T17:16:50.357Z,31.20
2018-07-28T17:19:18.450Z,31.80
2018-07-28T17:21:47.822Z,31.40
2018-07-28T17:24:15.909Z,31.43
2018-07-28T17:26:43.998Z,31.14
2018-07-28T17:29:12.422Z,31.21
2018-07-28T17:31:40.518Z,32.01
2018-07-28T17:34:08.946Z,32.19
2018-07-28T17:36:37.045Z,33.53
2018-07-28T17:39:07.316Z,34.08
2018-07-28T17:41:35.617Z,34.30
2018-07-28T17:44:03.845Z,34.91
2018-07-28T17:46:34.004Z,34.53
2018-07-28T17:49:02.902Z,35.10
2018-07-28T17:51:30.984Z,35.38
2018-07-28T17:53:59.158Z,37.00
2018-07-28T17:56:28.529Z,35.45
2018-07-28T17:58:56.623Z,35.38
2018-07-28T18:01:24.859Z,36.05
2018-07-28T18:03:53.284Z,36.83
2018-07-28T18:06:22.821Z,36.70
2018-07-28T18:08:50.902Z,36.63
2018-07-28T18:11:20.383Z,36.86
2018-07-28T18:13:48.602Z,36.31
2018-07-28T18:40:46.203Z,38.38
2018-07-28T18:43:20.532Z,37.73
2018-07-28T18:45:48.768Z,38.02
2018-07-28T18:48:17.022Z,39.30
2018-07-28T18:50:45.143Z,38.80
2018-07-28T19:10:29.854Z,41.58
2018-07-28T19:13:03.356Z,41.33
2018-07-28T19:15:31.496Z,40.81
2018-07-28T19:18:04.969Z,40.85
2018-07-28T19:20:33.264Z,40.99
2018-07-28T19:23:07.097Z,42.36
2018-07-28T19:25:35.464Z,41.93
2018-07-28T19:28:09.415Z,42.22
2018-07-28T19:30:38.962Z,41.84
2018-07-28T19:33:07.164Z,41.84
2018-07-28T19:35:40.457Z,41.72
2018-07-28T19:55:24.002Z,42.45
2018-07-28T19:57:52.281Z,41.21
2018-07-28T20:00:20.403Z,41.87
2018-07-28T20:02:48.491Z,41.00
2018-07-28T20:05:19.152Z,41.86
2018-07-28T20:07:47.216Z,41.69
2018-07-28T20:10:16.423Z,41.82
2018-07-28T20:12:44.506Z,40.91
2018-07-28T20:15:12.582Z,41.05
2018-07-28T20:17:41.437Z,40.85
2018-07-28T20:37:25.024Z,42.93
2018-07-28T20:39:53.559Z,41.37
2018-07-28T20:42:21.658Z,42.14
2018-07-28T20:44:49.804Z,42.23
2018-07-28T20:47:20.224Z,42.27
2018-07-28T21:07:03.275Z,43.07
2018-07-28T21:09:31.499Z,43.04
2018-07-28T21:11:59.570Z,42.47
2018-07-28T21:14:27.893Z,43.91
2018-07-28T21:16:56.001Z,43.26
2018-07-28T21:19:24.357Z,44.04
2018-07-28T21:21:52.645Z,43.92
2018-07-28T21:24:23.044Z,44.01
2018-07-28T21:26:51.180Z,43.32
2018-07-28T21:29:19.484Z,44.10
2018-07-28T21:31:47.726Z,44.57
2018-07-28T21:34:15.889Z,44.50
2018-07-28T21:36:45.574Z,44.17
2018-07-28T21:39:13.758Z,44.20
2018-07-28T21:41:47.066Z,44.41
2018-07-28T21:44:15.423Z,43.60
2018-07-28T21:46:45.179Z,44.06
2018-07-28T21:49:13.274Z,42.94
2018-07-28T21:51:41.662Z,44.09
2018-07-28T21:54:09.810Z,44.27
2018-07-28T21:56:39.617Z,44.04
2018-07-28T21:59:08.422Z,42.98
2018-07-28T22:01:36.633Z,43.57
2018-07-28T22:04:04.723Z,44.04
2018-07-28T22:06:34.961Z,43.84
2018-07-28T22:09:04.322Z,44.26
2018-07-28T22:11:33.579Z,43.94
2018-07-28T22:14:01.651Z,44.10
2018-07-28T22:16:30.113Z,43.60
2018-07-28T22:18:58.279Z,44.63
2018-07-28T22:21:26.709Z,44.07
2018-07-28T22:23:54.839Z,43.40
2018-07-28T22:43:37.903Z,45.85
2018-07-28T22:46:05.997Z,45.04
2018-07-28T22:48:34.201Z,45.07
2018-07-28T22:51:02.361Z,44.80
2018-07-28T22:53:31.033Z,45.01
2018-07-28T22:55:59.119Z,44.34
2018-07-28T22:58:27.214Z,45.29
2018-07-28T23:00:55.285Z,45.89
2018-07-28T23:03:23.437Z,46.69
2018-07-28T23:05:51.623Z,46.63
2018-07-28T23:08:19.880Z,47.36
2018-07-28T23:10:48.211Z,45.80
2018-07-28T23:13:16.445Z,46.48
2018-07-28T23:15:44.807Z,46.78
2018-07-28T23:18:12.977Z,47.28
2018-07-28T23:37:57.341Z,47.62
2018-07-28T23:40:25.571Z,47.34
2018-07-28T23:42:53.693Z,47.07
2018-07-28T23:45:21.775Z,46.65
2018-07-28T23:47:49.894Z,46.74
2018-07-28T23:50:18.007Z,47.84
2018-07-28T23:52:46.407Z,48.46
2018-07-28T23:55:14.717Z,48.49
2018-07-28T23:57:42.942Z,46.21
